Portada
METAR-TAF:

METAR-TAF

Aeroports :

Camagüey, Cuba

latitud: 21-25N, longitud: 077-51W, altitud: 122 m

Observació

L'informe es va fer fa 39 minuts, a les 15:50 UTC
Vent 11 kt del Nord/Nord-Est
Temperatura 30°C
Humitat 55%
Pressió 1016 hPa
Visibilitat: 9000 m
Cel ennuvolat a una alçada de 2000 ft

METAR: MUCM 131550Z 03011KT 9000 BKN020 30/20 Q1016

Hora: 12:29 (16:29 UTC)

Pronòstic

L'informe es va fer fa 5 hores i 29 minuts, a les 11:00 UTC
Pronòstic vàlid del 13 a les 12 UTC al 14 a les 12 UTC
Vent 3 kt amb direcció variable
Visibilitat: 9000 m
Núvols disperses a una alçada de 2000 ft
Evolucionant progressivament
l' 13 a les 14 UTC al 13 a les 16 UTC
Vent 12 kt del Nord/Nord-Est
Evolucionant progressivament
l' 14 a les 00 UTC al 14 a les 02 UTC
Vent 3 kt amb direcció variable

TAF: MUCM 131100Z 1312/1412 VRB03KT 9000 SCT020 BECMG 1314/1316 03012KT BECMG 1400/1402 VRB03KT

Observacions i pronòstics meteorològics de més de 4000 aeroports (METAR i TAF).

Les estacions disponibles són els punts grocs i vermells al mapa.

Posi el ratolí al punt desitjat per veure el nom de l'estació.

Feu clic per veure les observacions i els pronòstics meteorològics.

Per canviar el mapa: feu clic els botons verds amb una creu de color negre per apropar; al botó verd amb un guió per allunyar la imatge; o en les fletxes verdes per a mapes adjacents.


METAR-TAF: